Waipahu, Hawaii
Current Conditions -  °F | °C
As of 5:53 PM on Sunday 19 Oct 2014 (Local Time) from PHNL Reporting Station
Light Rain Light Rain  
Wind Chill: 77°   Ceiling: 8000
Heat Index: 77°   Visibility: 10mi
Dew Point: 74°   Wind: 9mph
Humidity: 91%   Direction: 60°ENE
Pressure: 29.99"   Gusts: NA
Location:  21.39°N, 158°W
Report Text: PHNL 200353Z 06008KT 10SM -RA SCT027 BKN080 OVC110 25/23 A2999 RMK AO2 SLP154 P0005 T02480233 $
Loading
Personal Weather Stations






























Interactive Weather Map
Tropical Storm Tracking
New forecast layout! Learn more

10-Day Weather Forecast

Advertisements
Track Severe Weather on mobile